»·PEaware :: N763R KSMX-KBFL

N763R :: KSMX-KBFL

FLIGHT INFORMATION

Flight Status: Arrived
Operator: Privately registered:
United States
More flights under this callsign
Pilot: Ian R. (18354)
Aircraft: PIPER PA-28 CHEROKEE ARCHER
(PA28)
More flights by this aircraft type
Origin: KSMX Santa Maria Pub/Capt Hancock
United States
Destination: KBFL Meadows
United States
More flights between these airports :: More routes between these airports
Route: +VFR
File this flight plan on PilotEdge
Remarks:
Altitude:
(Current/Filed)
7,500ft
Speed:
(Current/Filed)
110kts
Departed: 24-Jan-19 01:20 PM
Arrived: 24-Jan-19 02:10 PM
Distance/Time
Traveled:
76nm/0:49
Distance/Time
To Go:
Arrived

Flight Plot

Page will automatically refresh every two minutes.

Flight plan parsing failed; only flown route is shown


Map Options




Map Legend


Flown Route
Filed Route
Departure Airport
Arrival Airport
Navaid (VOR, NDB)
Fix

Horizontal Profiles

Position Reports

Time Latitude Longitude Heading Altitude Ground
Speed
24-Jan-19 13:11 34.896380 -120.445719 317 264ft 0kts
24-Jan-19 13:12 34.896382 -120.445721 317 264ft 0kts
24-Jan-19 13:13 34.896384 -120.445723 317 264ft 0kts
24-Jan-19 13:14 34.896386 -120.445725 317 264ft 0kts
24-Jan-19 13:15 34.895718 -120.445492 139 264ft 9kts
24-Jan-19 13:16 34.895041 -120.444962 218 264ft 5kts
24-Jan-19 13:17 34.893552 -120.445268 180 264ft 0kts
24-Jan-19 13:18 34.893550 -120.445268 180 264ft 0kts
24-Jan-19 13:19 34.896408 -120.450206 313 288ft 79kts
24-Jan-19 13:20 34.914920 -120.467996 352 1257ft 86kts
24-Jan-19 13:21 34.938467 -120.466066 11 2296ft 88kts
24-Jan-19 13:22 34.961361 -120.458825 41 3448ft 83kts
24-Jan-19 13:23 34.973985 -120.437039 65 4661ft 84kts
24-Jan-19 13:24 34.982186 -120.408965 65 6027ft 86kts
24-Jan-19 13:25 34.990245 -120.378980 63 7119ft 92kts
24-Jan-19 13:26 34.997692 -120.348568 65 8002ft 108kts
24-Jan-19 13:27 35.009230 -120.307396 64 7492ft 116kts
24-Jan-19 13:28 35.018616 -120.273237 65 7427ft 108kts
24-Jan-19 13:29 35.028836 -120.236760 63 7484ft 115kts
24-Jan-19 13:30 35.039155 -120.200750 63 7470ft 99kts
24-Jan-19 13:31 35.047695 -120.168754 64 7353ft 96kts
24-Jan-19 13:32 35.056527 -120.137340 64 7357ft 106kts
24-Jan-19 13:33 35.066717 -120.101675 64 7510ft 117kts
24-Jan-19 13:34 35.078053 -120.064033 63 7533ft 114kts
24-Jan-19 13:35 35.088634 -120.028246 63 7533ft 110kts
24-Jan-19 13:36 35.099038 -119.993783 62 7525ft 104kts
24-Jan-19 13:37 35.109471 -119.960956 63 7513ft 103kts
24-Jan-19 13:38 35.120125 -119.928443 62 7514ft 103kts
24-Jan-19 13:39 35.130909 -119.895413 63 7523ft 110kts
24-Jan-19 13:40 35.142502 -119.860647 62 7523ft 108kts
24-Jan-19 13:41 35.153899 -119.826992 62 7531ft 106kts
24-Jan-19 13:42 35.165210 -119.793368 62 7538ft 109kts
24-Jan-19 13:43 35.177223 -119.758577 61 7539ft 112kts
24-Jan-19 13:44 35.189883 -119.722653 61 7575ft 120kts
24-Jan-19 13:45 35.203671 -119.684298 62 7587ft 126kts
24-Jan-19 13:46 35.217033 -119.647626 62 7378ft 112kts
24-Jan-19 13:47 35.230168 -119.612316 62 6947ft 114kts
24-Jan-19 13:48 35.243669 -119.577383 61 6525ft 113kts
24-Jan-19 13:49 35.258043 -119.541656 61 6063ft 121kts
24-Jan-19 13:50 35.273157 -119.504920 61 5549ft 120kts
24-Jan-19 13:51 35.286725 -119.472892 60 4861ft 118kts
24-Jan-19 13:52 35.301023 -119.439415 60 4262ft 105kts
24-Jan-19 13:53 35.314764 -119.407687 60 3748ft 108kts
24-Jan-19 13:54 35.328313 -119.373392 66 3068ft 112kts
24-Jan-19 13:55 35.340311 -119.338022 66 2548ft 114kts
24-Jan-19 13:56 35.352570 -119.301945 66 1913ft 107kts
24-Jan-19 13:57 35.363016 -119.271001 65 1494ft 105kts
24-Jan-19 13:58 35.373540 -119.239784 65 1612ft 98kts
24-Jan-19 13:59 35.387754 -119.214162 10 1770ft 92kts
24-Jan-19 14:00 35.413491 -119.214366 347 1931ft 91kts
24-Jan-19 14:01 35.439638 -119.217013 32 2093ft 100kts
24-Jan-19 14:02 35.445067 -119.182631 89 2223ft 109kts
24-Jan-19 14:03 35.443223 -119.145992 93 2452ft 106kts
24-Jan-19 14:04 35.438592 -119.108424 100 2189ft 112kts
24-Jan-19 14:05 35.432415 -119.074625 110 1201ft 92kts
24-Jan-19 14:06 35.418755 -119.053611 139 1041ft 69kts
24-Jan-19 14:07 35.414913 -119.036783 356 1010ft 65kts
24-Jan-19 14:08 35.429465 -119.051050 317 595ft 67kts
24-Jan-19 14:09 35.437318 -119.060339 333 510ft 9kts
24-Jan-19 14:10 35.438193 -119.059960 60 510ft 0kts
24-Jan-19 14:11 35.436833 -119.057562 134 510ft 21kts
24-Jan-19 14:12 35.432965 -119.052889 137 510ft 18kts
24-Jan-19 14:13 35.429180 -119.048306 135 510ft 19kts
24-Jan-19 14:14 35.428891 -119.045863 59 510ft 4kts
24-Jan-19 14:15 35.429057 -119.045908 228 510ft 0kts
24-Jan-19 14:16 35.429057 -119.045909 228 510ft 0kts
24-Jan-19 14:17 35.429056 -119.045910 228 510ft 0kts

Navigation Log

Ident Type
Flight plan parsing failed, navigation log unavailable